Weather reports worldwide

Advertisment
Langdon Bay, United Kingdom (3796): temperature & dewpoint: 12.01.2018 11:00:00 - 18.01.2018 11:00:00 (GMT)Langdon Bay, United Kingdom (3796): wind speed & gusts: 12.01.2018 11:00:00 - 18.01.2018 11:00:00 (GMT)Langdon Bay, United Kingdom (3796): wind direction: 12.01.2018 11:00:00 - 18.01.2018 11:00:00 (GMT)Langdon Bay, United Kingdom (3796): reduced air pressure: 12.01.2018 11:00:00 - 18.01.2018 11:00:00 (GMT)
Date & Time tt [°C] td [°C] ff [km/h] ff [kn] fx [km/h] fx [kn] dd ppp [hPa]
18.01.2018 11:00:00 7,6 1,3 28 15 50 27 W 1002,1
18.01.2018 10:00:00 7,2 0,7 31 17 54 29 W 1001,0
18.01.2018 09:00:00 6,9 0,4 34 18 70 38 W 999,3
18.01.2018 08:00:00 7,8 1,0 39 21 80 43 W 996,8
18.01.2018 07:00:00 8,6 2,4 44 24 96 52 W 994,3
18.01.2018 06:00:00 9,9 4,2 55 30 91 49 W 991,9
18.01.2018 05:00:00 9,5 7,7 55 30 78 42 WSW 991,0
18.01.2018 04:00:00 9,3 8,8 52 28 93 50 WSW 991,8
18.01.2018 03:00:00 8,7 8,6 65 35 85 46 WSW 993,7
18.01.2018 02:00:00 7,5 7,5 46 25 74 40 WSW 995,8
18.01.2018 01:00:00 7,0 6,8 41 22 76 41 SW 998,1
18.01.2018 00:00:00 6,4 5,5 37 20 63 34 SW 1001,6
17.01.2018 23:00:00 6,3 3,9 24 13 52 28 SW 1004,6
17.01.2018 22:00:00 6,0 2,5 29 16 50 27 WSW 1006,6
17.01.2018 21:00:00 5,1 1,3 28 15 48 26 WSW 1008,1
17.01.2018 20:00:00 5,0 0,0 34 18 54 29 W 1008,7
17.01.2018 19:00:00 4,7 -0,5 28 15 46 25 W 1008,9
17.01.2018 18:00:00 5,1 -1,0 28 15 52 28 W 1009,1
17.01.2018 17:00:00 5,3 -1,5 26 14 57 31 W 1008,8
17.01.2018 16:00:00 6,0 -1,4 28 15 - - W 1008,5
17.01.2018 15:00:00 6,6 -0,7 24 13 55 30 W 1008,2
17.01.2018 14:00:00 6,4 -0,9 29 16 55 30 W 1007,8
17.01.2018 13:00:00 7,0 -0,4 26 14 55 30 W 1007,3
17.01.2018 12:00:00 6,3 -1,0 28 15 59 32 W 1006,8
17.01.2018 11:00:00 5,5 -0,7 34 18 59 32 WNW 1006,3
17.01.2018 10:00:00 4,3 -1,2 29 16 55 30 W 1005,2
17.01.2018 09:00:00 3,3 -1,6 29 16 57 31 WNW 1003,9
17.01.2018 08:00:00 2,4 -1,8 31 17 54 29 W 1002,7
17.01.2018 07:00:00 2,0 -2,2 29 16 54 29 W 1001,3
17.01.2018 06:00:00 2,0 -2,3 31 17 54 29 W 1000,4
17.01.2018 05:00:00 1,6 -1,6 31 17 57 31 W 999,2
17.01.2018 04:00:00 1,9 -2,1 35 19 57 31 W 998,2
17.01.2018 03:00:00 2,0 -1,9 35 19 59 32 W 997,4
17.01.2018 02:00:00 2,0 -1,9 31 17 52 28 W 996,5
17.01.2018 01:00:00 2,5 -1,3 35 19 61 33 W 995,5
17.01.2018 00:00:00 2,9 -1,0 34 18 54 29 W 995,2
16.01.2018 23:00:00 2,9 -0,6 29 16 54 29 W 994,6
16.01.2018 22:00:00 3,3 -0,3 31 17 55 30 W 994,3
16.01.2018 21:00:00 3,4 0,7 31 17 46 25 W 994,5
16.01.2018 20:00:00 3,8 1,0 24 13 - - WSW 994,7
16.01.2018 19:00:00 4,4 0,4 24 13 46 25 W 995,1
16.01.2018 18:00:00 4,2 -0,3 26 14 48 26 WSW 995,1
16.01.2018 17:00:00 4,7 -1,0 26 14 - - WSW 995,7
16.01.2018 16:00:00 5,3 -1,3 28 15 50 27 W 996,0
16.01.2018 15:00:00 6,4 -1,0 28 15 54 29 W 996,3
16.01.2018 14:00:00 7,2 -0,4 34 18 59 32 W 996,0
16.01.2018 13:00:00 7,3 0,4 28 15 54 29 W 996,3
16.01.2018 12:00:00 6,0 0,1 31 17 52 28 W 996,7
16.01.2018 11:00:00 6,7 0,2 34 18 61 33 W 996,8
16.01.2018 10:00:00 5,9 1,2 24 13 46 25 W 996,5
16.01.2018 09:00:00 4,8 1,1 29 16 48 26 W 996,0
16.01.2018 08:00:00 4,8 1,8 28 15 - - W 995,3
16.01.2018 07:00:00 5,2 2,4 24 13 - - W 994,3
16.01.2018 06:00:00 5,2 3,2 24 13 - - W 993,6
16.01.2018 05:00:00 5,8 3,4 29 16 48 26 WSW 993,4
16.01.2018 04:00:00 5,7 3,4 29 16 46 25 W 993,2
16.01.2018 03:00:00 6,2 3,8 31 17 50 27 W 994,3
16.01.2018 02:00:00 5,9 3,2 29 16 48 26 W 994,1
16.01.2018 01:00:00 5,7 3,6 24 13 - - WSW 994,7
16.01.2018 00:00:00 5,7 3,7 22 12 - - WSW 995,1
15.01.2018 23:00:00 5,5 3,4 26 14 54 29 WSW 995,9
15.01.2018 22:00:00 5,6 3,5 35 19 61 33 W 995,3
15.01.2018 21:00:00 5,7 3,8 22 12 - - WSW 995,0
15.01.2018 20:00:00 6,6 4,0 16 9 - - W 994,4
15.01.2018 19:00:00 8,1 5,5 28 15 55 30 W 994,1
15.01.2018 18:00:00 8,7 7,3 21 11 48 26 WSW 993,0
15.01.2018 17:00:00 8,8 8,3 21 11 - - W 992,4
15.01.2018 16:00:00 9,1 9,1 22 12 50 27 WSW 991,5
15.01.2018 15:00:00 8,7 8,7 37 20 63 34 WSW 991,7
15.01.2018 14:00:00 8,5 8,5 31 17 70 38 WSW 992,4
15.01.2018 13:00:00 7,9 7,8 41 22 78 42 SW 994,0
15.01.2018 12:00:00 7,6 7,6 48 26 81 44 SSW 996,5
15.01.2018 11:00:00 7,3 7,2 46 25 85 46 SSW 999,0
15.01.2018 10:00:00 7,0 6,9 50 27 81 44 SSW 1000,3
15.01.2018 09:00:00 6,8 6,3 50 27 80 43 SSW 1002,2
15.01.2018 08:00:00 7,0 5,9 41 22 80 43 SW 1004,0
15.01.2018 07:00:00 6,9 6,0 46 25 78 42 SSW 1005,2
15.01.2018 06:00:00 7,1 5,6 37 20 61 33 SW 1006,8
15.01.2018 05:00:00 7,2 4,9 31 17 54 29 SW 1008,6
15.01.2018 04:00:00 7,0 4,7 28 15 48 26 SW 1009,9
15.01.2018 03:00:00 6,1 5,1 31 17 59 32 WSW 1011,4
15.01.2018 02:00:00 6,4 5,1 29 16 57 31 SW 1011,6
15.01.2018 01:00:00 6,4 3,5 24 13 - - WSW 1013,3
15.01.2018 00:00:00 5,2 2,4 22 12 - - WSW 1014,4
14.01.2018 23:00:00 4,8 2,2 22 12 - - WSW 1015,4
14.01.2018 22:00:00 4,5 2,2 21 11 - - WSW 1016,2
14.01.2018 21:00:00 4,8 2,9 11 6 - - SW 1016,6
14.01.2018 20:00:00 4,5 2,4 13 7 - - SW 1017,1
14.01.2018 19:00:00 4,3 2,0 13 7 - - WSW 1017,2
14.01.2018 18:00:00 4,4 2,2 9 5 - - S 1017,3
14.01.2018 17:00:00 2,4 1,1 5 3 - - SE 1017,3
14.01.2018 16:00:00 3,7 0,9 4 2 - - E 1017,7
14.01.2018 15:00:00 4,8 1,9 9 5 - - E 1017,2
14.01.2018 14:00:00 5,7 2,2 5 3 - - NE 1017,4
14.01.2018 13:00:00 5,5 2,3 9 5 - - NNE 1017,9
14.01.2018 12:00:00 5,0 1,9 9 5 - - ESE 1018,1
14.01.2018 11:00:00 5,1 2,5 13 7 - - ESE 1018,8
14.01.2018 10:00:00 5,2 2,8 18 10 - - E 1018,6
14.01.2018 09:00:00 4,1 2,3 21 11 - - E 1018,4
14.01.2018 08:00:00 4,2 2,1 24 13 - - E 1018,2
14.01.2018 07:00:00 4,7 2,1 24 13 - - E 1018,2
14.01.2018 06:00:00 5,1 2,1 24 13 - - E 1017,9
14.01.2018 05:00:00 5,1 0,9 22 12 - - E 1018,1
14.01.2018 04:00:00 5,1 0,8 22 12 - - E 1018,5
14.01.2018 03:00:00 4,9 0,9 24 13 - - E 1018,5
14.01.2018 02:00:00 4,2 1,2 22 12 - - E 1018,7
14.01.2018 01:00:00 3,3 0,4 16 9 - - E 1019,0
14.01.2018 00:00:00 3,8 0,7 24 13 - - ESE 1019,5
13.01.2018 23:00:00 3,8 1,3 22 12 - - ESE 1019,7
13.01.2018 22:00:00 3,8 1,4 24 13 - - ESE 1019,8
13.01.2018 21:00:00 3,8 1,3 24 13 - - ESE 1020,1
13.01.2018 20:00:00 3,7 1,4 24 13 - - ESE 1020,4
13.01.2018 19:00:00 3,6 1,6 21 11 - - ESE 1020,3
13.01.2018 18:00:00 3,5 1,9 18 10 - - SE 1020,4
13.01.2018 17:00:00 3,6 2,5 26 14 - - ESE 1020,0
13.01.2018 16:00:00 4,1 2,7 24 13 - - ESE 1020,0
13.01.2018 15:00:00 4,5 2,9 18 10 - - ESE 1020,2
13.01.2018 14:00:00 4,7 3,0 18 10 - - ESE 1020,4
13.01.2018 13:00:00 4,4 3,1 15 8 - - SE 1021,0
13.01.2018 12:00:00 4,4 3,5 18 10 - - SSE 1021,6
13.01.2018 11:00:00 4,7 3,6 15 8 - - SE 1022,2
13.01.2018 10:00:00 4,9 3,5 26 14 - - SE 1022,0
13.01.2018 09:00:00 5,1 4,2 24 13 - - SE 1022,0
13.01.2018 08:00:00 5,3 4,0 28 15 - - SSE 1021,8
13.01.2018 07:00:00 4,6 3,1 22 12 - - ESE 1021,9
13.01.2018 06:00:00 4,3 3,0 21 11 - - ESE 1022,2
13.01.2018 05:00:00 4,8 3,0 21 11 - - SE 1022,4
13.01.2018 04:00:00 4,9 2,9 16 9 - - SSE 1022,9
13.01.2018 03:00:00 4,9 3,2 18 10 - - SSE 1023,4
13.01.2018 02:00:00 5,1 2,8 22 12 - - S 1023,8
13.01.2018 01:00:00 5,1 2,9 21 11 - - S 1024,0
13.01.2018 00:00:00 5,3 3,2 18 10 - - S 1024,7
12.01.2018 23:00:00 5,7 3,3 22 12 - - SSE 1025,0
12.01.2018 22:00:00 6,2 3,1 21 11 - - SSE 1025,1
12.01.2018 21:00:00 6,2 3,4 16 9 - - SSE 1025,5
12.01.2018 20:00:00 6,1 4,0 13 7 - - SE 1025,6
12.01.2018 19:00:00 5,7 2,8 11 6 - - ESE 1025,6
12.01.2018 18:00:00 6,0 3,8 16 9 - - ESE 1025,8
12.01.2018 17:00:00 6,5 3,3 15 8 - - SE 1026,0
12.01.2018 16:00:00 6,1 4,2 16 9 - - ESE 1025,9
12.01.2018 15:00:00 6,5 4,7 9 5 - - ESE 1026,2
12.01.2018 14:00:00 6,7 4,3 4 2 - - SE 1026,4
12.01.2018 13:00:00 7,2 4,5 5 3 - - ESE 1026,5
12.01.2018 12:00:00 6,6 5,4 11 6 - - ESE 1026,9
12.01.2018 11:00:00 6,9 6,1 9 5 - - E 1027,0

tt = temperature
td = dewpoint
ff = wind speed
fx = gusts
dd = wind direction
ppp = reduced air pressure

Next stations